Time;durP1;ratioP1;P1;durP2;ratioP2;P2;SDS_P1;SDS_P2;PMS_P1;PMS_P2;Temp;Humidity;BMP_temperature;BMP_pressure;BME280_temperature;BME280_humidity;BME280_pressure;Samples;Min_cycle;Max_cycle;Signal;HPM_P1;HPM_P2
2024/03/04 00:01:20;;;;;;;20.27;13.32;;;;;;;11.31;62.19;98555.97;4171813;28;20037;-70
2024/03/04 00:03:20;;;;;;;19.92;13.88;;;;;;;11.37;61.74;98549.88;4173231;28;20033;-71
2024/03/04 00:05:21;;;;;;;14.70;10.60;;;;;;;11.46;61.61;98552.44;4172752;28;20025;-70
2024/03/04 00:07:24;;;;;;;16.33;11.73;;;;;;;11.42;61.73;98573.41;4172689;28;20114;-70
2024/03/04 00:09:25;;;;;;;18.88;12.32;;;;;;;11.27;62.27;98568.06;4173658;28;20025;-70
2024/03/04 00:11:26;;;;;;;18.35;12.00;;;;;;;11.36;62.20;98563.44;4172558;28;20027;-71
2024/03/04 00:13:27;;;;;;;20.10;12.70;;;;;;;11.30;62.29;98578.41;4172996;28;20082;-70
2024/03/04 00:15:27;;;;;;;21.40;13.40;;;;;;;11.17;62.79;98580.88;4172490;28;20528;-70
2024/03/04 00:17:29;;;;;;;17.05;12.57;;;;;;;11.18;62.89;98594.09;4173563;28;20048;-70
2024/03/04 00:19:30;;;;;;;16.98;12.15;;;;;;;11.21;62.71;98593.69;4173135;28;20036;-70
2024/03/04 00:21:30;;;;;;;18.23;13.07;;;;;;;11.02;63.78;98594.25;4173674;28;20016;-69
2024/03/04 00:23:33;;;;;;;17.67;13.23;;;;;;;11.04;63.78;98598.41;4173206;28;20043;-70
2024/03/04 00:25:33;;;;;;;18.67;13.43;;;;;;;11.06;63.99;98599.03;4173018;28;20025;-70
2024/03/04 00:27:34;;;;;;;18.13;12.75;;;;;;;11.16;63.55;98603.28;4173326;28;20559;-70
2024/03/04 00:29:34;;;;;;;17.67;12.07;;;;;;;11.06;63.80;98612.41;4173751;28;20037;-70
2024/03/04 00:31:34;;;;;;;15.55;11.48;;;;;;;11.10;63.62;98606.69;4173663;28;20040;-70
2024/03/04 00:33:36;;;;;;;16.70;11.68;;;;;;;11.14;63.58;98608.00;4173089;28;20029;-70
2024/03/04 00:35:37;;;;;;;17.00;11.52;;;;;;;11.11;63.85;98614.53;4176145;28;20021;-70
2024/03/04 00:37:37;;;;;;;17.25;12.23;;;;;;;11.06;64.04;98619.63;4172933;28;20091;-70
2024/03/04 00:39:41;;;;;;;14.50;10.20;;;;;;;11.17;63.82;98619.16;4173601;28;20104;-70
2024/03/04 00:41:42;;;;;;;14.65;11.35;;;;;;;11.08;64.13;98625.63;4170539;28;20033;-70
2024/03/04 00:43:43;;;;;;;15.13;10.63;;;;;;;11.19;63.64;98637.69;4172786;28;20100;-70
2024/03/04 00:45:44;;;;;;;16.27;10.27;;;;;;;11.22;63.58;98634.66;4174367;28;20033;-70
2024/03/04 00:47:44;;;;;;;13.93;10.10;;;;;;;11.25;63.48;98623.56;4167923;28;20029;-70
2024/03/04 00:49:45;;;;;;;13.10;8.82;;;;;;;11.21;63.51;98633.00;4179173;28;20037;-69
2024/03/04 00:51:45;;;;;;;11.93;8.57;;;;;;;11.19;63.95;98638.50;4173169;28;20034;-70
2024/03/04 00:53:47;;;;;;;16.10;11.00;;;;;;;11.13;64.35;98638.44;4173805;28;20429;-70
2024/03/04 00:55:49;;;;;;;14.98;10.73;;;;;;;11.12;64.27;98644.78;4172738;28;20037;-70
2024/03/04 00:57:49;;;;;;;14.95;10.50;;;;;;;11.05;64.50;98648.19;4173254;28;20626;-70
2024/03/04 00:59:50;;;;;;;14.82;10.50;;;;;;;11.04;64.48;98643.03;4177262;28;20021;-70
2024/03/04 01:01:50;;;;;;;14.10;9.50;;;;;;;11.16;64.21;98644.25;4182781;28;20044;-71
2024/03/04 01:03:50;;;;;;;12.65;9.40;;;;;;;11.12;64.49;98655.50;4188162;28;20067;-70
2024/03/04 01:05:51;;;;;;;12.48;9.27;;;;;;;11.15;64.27;98655.09;4187821;28;20025;-70
2024/03/04 01:07:52;;;;;;;13.68;9.32;;;;;;;11.11;64.38;98654.66;4188326;28;20029;-70
2024/03/04 01:09:52;;;;;;;13.38;9.80;;;;;;;11.01;65.10;98657.59;4184595;28;20041;-70
2024/03/04 01:11:53;;;;;;;12.43;8.77;;;;;;;11.06;64.88;98655.19;4188016;28;20037;-70
2024/03/04 01:13:53;;;;;;;12.18;8.90;;;;;;;10.99;65.07;98659.63;4188143;28;20045;-71
2024/03/04 01:15:53;;;;;;;11.80;7.90;;;;;;;10.85;65.73;98655.09;4188551;28;20060;-70
2024/03/04 01:17:54;;;;;;;13.98;8.93;;;;;;;10.86;65.68;98660.22;4170061;28;20531;-71
2024/03/04 01:19:55;;;;;;;11.45;7.63;;;;;;;10.95;65.41;98660.16;4173244;28;20500;-70
2024/03/04 01:21:55;;;;;;;11.30;8.07;;;;;;;11.05;65.41;98658.88;4173235;28;20025;-70
2024/03/04 01:23:56;;;;;;;10.13;7.80;;;;;;;11.02;65.23;98663.75;4176800;28;20026;-70
2024/03/04 01:25:57;;;;;;;11.07;8.23;;;;;;;10.88;65.67;98668.91;4171420;28;20272;-70
2024/03/04 01:27:57;;;;;;;11.23;8.10;;;;;;;11.02;65.32;98667.28;4173268;28;20528;-70
2024/03/04 01:29:57;;;;;;;9.63;7.22;;;;;;;11.10;65.02;98668.22;4172779;28;20104;-70
2024/03/04 01:31:58;;;;;;;11.38;8.18;;;;;;;11.10;64.87;98676.22;4172534;28;20026;-69
2024/03/04 01:33:58;;;;;;;11.60;7.82;;;;;;;10.93;65.58;98679.06;4172669;28;20053;-69
2024/03/04 01:36:00;;;;;;;7.65;5.43;;;;;;;10.99;65.39;98675.66;4171371;28;20029;-69
2024/03/04 01:38:01;;;;;;;9.32;6.47;;;;;;;11.02;65.27;98680.66;4173611;28;20087;-70
2024/03/04 01:40:03;;;;;;;9.68;6.43;;;;;;;11.08;65.00;98679.91;4173835;28;20025;-70
2024/03/04 01:42:03;;;;;;;8.45;6.15;;;;;;;11.04;65.34;98689.34;4177713;28;20051;-70
2024/03/04 01:44:03;;;;;;;9.60;7.00;;;;;;;10.81;65.92;98688.50;4168575;28;20025;-70
2024/03/04 01:46:08;;;;;;;10.90;7.72;;;;;;;10.70;66.18;98693.28;4187093;28;20127;-71
2024/03/04 01:48:09;;;;;;;8.85;6.57;;;;;;;10.85;66.06;98695.19;4188813;28;20080;-70
2024/03/04 01:50:10;;;;;;;;;;;;;;;10.85;66.31;98690.66;4190731;28;20021;-71
2024/03/04 01:52:11;;;;;;;9.87;7.17;;;;;;;10.73;66.35;98695.59;4179588;28;19935;-69
2024/03/04 01:54:12;;;;;;;11.02;8.00;;;;;;;10.46;67.57;98696.94;4186091;28;20028;-71
2024/03/04 01:56:13;;;;;;;10.52;8.57;;;;;;;10.53;67.19;98699.75;4189844;28;20036;-70
2024/03/04 01:58:17;;;;;;;13.90;8.93;;;;;;;10.13;68.55;98703.28;4165600;28;20021;-70
2024/03/04 02:00:20;;;;;;;12.13;8.73;;;;;;;10.26;68.40;98704.56;4172570;28;20048;-70
2024/03/04 02:02:21;;;;;;;10.88;8.30;;;;;;;10.42;67.67;98701.81;4172101;28;20042;-70
2024/03/04 02:04:22;;;;;;;10.15;7.60;;;;;;;10.51;67.44;98701.75;4172522;28;20048;-70
2024/03/04 02:06:22;;;;;;;10.73;7.45;;;;;;;10.60;66.97;98714.06;4171494;28;20032;-71
2024/03/04 02:08:23;;;;;;;10.95;8.00;;;;;;;10.48;67.55;98715.50;4164826;28;20033;-70
2024/03/04 02:10:23;;;;;;;14.10;10.93;;;;;;;10.19;68.73;98723.13;4174949;28;20037;-70
2024/03/04 02:12:24;;;;;;;15.13;11.38;;;;;;;9.95;69.71;98730.25;4170991;28;20101;-70
2024/03/04 02:14:25;;;;;;;12.98;10.60;;;;;;;9.99;69.75;98728.88;4171975;28;20032;-70
2024/03/04 02:16:25;;;;;;;14.48;10.80;;;;;;;10.17;69.16;98735.00;4171703;28;20017;-69
2024/03/04 02:18:26;;;;;;;13.07;10.70;;;;;;;10.06;69.55;98734.38;4171379;28;20036;-71
2024/03/04 02:20:27;;;;;;;11.18;9.18;;;;;;;10.36;68.43;98729.22;4170845;28;20028;-70
2024/03/04 02:22:28;;;;;;;11.73;9.07;;;;;;;10.38;68.30;98723.72;4170195;28;20063;-70
2024/03/04 02:24:28;;;;;;;12.77;9.20;;;;;;;10.40;68.28;98735.88;4170542;28;20029;-70
2024/03/04 02:26:29;;;;;;;11.77;9.60;;;;;;;10.44;68.30;98741.69;4171852;28;20083;-70
2024/03/04 02:28:29;;;;;;;12.02;9.52;;;;;;;10.38;68.36;98737.91;4171534;28;20267;-70
2024/03/04 02:30:32;;;;;;;13.33;10.07;;;;;;;10.30;68.73;98741.44;4171559;28;20510;-70
2024/03/04 02:32:33;;;;;;;14.80;12.05;;;;;;;9.99;69.91;98744.91;4179324;28;20263;-70
2024/03/04 02:34:35;;;;;;;20.50;13.13;;;;;;;10.03;70.33;98736.56;4163245;28;20028;-70
2024/03/04 02:36:37;;;;;;;15.30;12.77;;;;;;;10.12;70.12;98744.34;4171160;28;20639;-70
2024/03/04 02:38:38;;;;;;;16.65;12.90;;;;;;;10.22;69.77;98751.31;4162897;28;20443;-70
2024/03/04 02:40:38;;;;;;;15.55;12.50;;;;;;;10.13;70.38;98748.69;4170874;28;20102;-70
2024/03/04 02:42:39;;;;;;;16.17;13.38;;;;;;;10.03;70.60;98744.56;4176321;28;20487;-70
2024/03/04 02:44:39;;;;;;;16.25;12.20;;;;;;;10.22;70.09;98762.00;4169081;28;20045;-71
2024/03/04 02:46:41;;;;;;;16.70;12.63;;;;;;;10.22;69.86;98753.97;4162285;28;20713;-70
2024/03/04 02:48:41;;;;;;;15.07;11.95;;;;;;;10.38;69.31;98755.78;4168462;28;20060;-69
2024/03/04 02:50:42;;;;;;;15.35;11.80;;;;;;;10.56;68.67;98760.88;4168051;28;20028;-70
2024/03/04 02:52:44;;;;;;;15.38;11.63;;;;;;;10.45;69.10;98760.25;4162895;28;20104;-70
2024/03/04 02:54:44;;;;;;;16.63;12.32;;;;;;;10.38;69.14;98767.31;4162832;28;20131;-70
2024/03/04 02:56:45;;;;;;;15.68;12.27;;;;;;;10.48;69.17;98772.41;4169075;28;20537;-70
2024/03/04 02:58:45;;;;;;;15.80;12.02;;;;;;;10.61;68.72;98780.72;4181122;28;20029;-70
2024/03/04 03:00:46;;;;;;;12.23;10.70;;;;;;;10.70;68.31;98777.97;4186987;28;20029;-70
2024/03/04 03:02:46;;;;;;;14.38;10.57;;;;;;;10.75;68.27;98781.78;4183406;28;20055;-71
2024/03/04 03:04:46;;;;;;;16.80;12.02;;;;;;;10.71;68.14;98785.00;4180412;28;20051;-70
2024/03/04 03:06:47;;;;;;;16.40;12.70;;;;;;;10.57;68.98;98799.94;4186502;28;20083;-70
2024/03/04 03:08:49;;;;;;;16.23;12.30;;;;;;;10.50;69.33;98799.81;4181473;28;20033;-70
2024/03/04 03:10:49;;;;;;;17.40;13.32;;;;;;;10.63;68.80;98798.41;4186448;28;20029;-70
2024/03/04 03:12:50;;;;;;;18.63;14.30;;;;;;;10.57;68.97;98805.28;4171854;28;20105;-70
2024/03/04 03:14:50;;;;;;;;;;;;;;;10.42;69.55;98806.00;4170972;28;20033;-71
2024/03/04 03:16:52;;;;;;;19.93;16.07;;;;;;;10.24;70.29;98805.38;4170249;28;19912;-70
2024/03/04 03:18:56;;;;;;;;;;;;;;;9.98;71.73;98812.66;4166173;28;20151;-69
2024/03/04 03:20:56;;;;;;;23.17;18.27;;;;;;;10.33;70.38;98815.03;4172466;28;19919;-71
2024/03/04 03:22:57;;;;;;;18.33;14.75;;;;;;;10.55;69.28;98812.63;4181704;28;20040;-71
2024/03/04 03:24:57;;;;;;;18.63;14.40;;;;;;;10.66;68.91;98814.94;4182407;28;20032;-71
2024/03/04 03:26:58;;;;;;;22.95;17.27;;;;;;;10.34;69.99;98815.88;4179792;28;20366;-70
2024/03/04 03:28:58;;;;;;;19.48;15.50;;;;;;;10.54;69.61;98821.66;4178596;28;20068;-70
2024/03/04 03:30:59;;;;;;;21.70;16.87;;;;;;;10.57;69.64;98832.81;4180741;28;20055;-70
2024/03/04 03:32:59;;;;;;;21.65;15.85;;;;;;;10.74;68.92;98830.91;4183142;28;20332;-71
2024/03/04 03:35:00;;;;;;;20.88;16.15;;;;;;;10.63;69.04;98830.47;4181387;28;20029;-70
2024/03/04 03:37:01;;;;;;;21.85;17.42;;;;;;;10.47;69.60;98826.03;4171232;28;20034;-70
2024/03/04 03:39:04;;;;;;;22.25;16.88;;;;;;;10.50;69.69;98828.34;4175830;28;20036;-69
2024/03/04 03:41:05;;;;;;;19.67;15.63;;;;;;;10.59;69.37;98833.50;4175301;28;20036;-70
2024/03/04 03:43:06;;;;;;;22.08;16.80;;;;;;;10.48;69.75;98839.22;4172874;28;20453;-70
2024/03/04 03:45:08;;;;;;;22.88;17.13;;;;;;;10.59;69.50;98840.66;4173606;28;20074;-70
2024/03/04 03:47:08;;;;;;;22.67;17.05;;;;;;;10.55;69.64;98842.84;4170045;28;20021;-70
2024/03/04 03:49:10;;;;;;;27.67;19.50;;;;;;;10.25;70.65;98844.44;4174375;28;20436;-70
2024/03/04 03:51:11;;;;;;;24.92;17.98;;;;;;;10.37;70.58;98845.78;4166454;28;20036;-70
2024/03/04 03:53:11;;;;;;;25.88;18.00;;;;;;;10.12;71.23;98851.16;4165517;28;20512;-70
2024/03/04 03:55:12;;;;;;;24.75;16.88;;;;;;;10.27;70.68;98858.47;4165584;28;20159;-70
2024/03/04 03:57:12;;;;;;;22.88;16.30;;;;;;;10.24;70.71;98853.47;4172436;28;20026;-70
2024/03/04 03:59:13;;;;;;;22.83;17.00;;;;;;;10.25;70.92;98861.28;4178281;28;20159;-70
2024/03/04 04:01:13;;;;;;;24.60;15.57;;;;;;;10.30;70.57;98866.13;4173701;28;20080;-70
2024/03/04 04:03:14;;;;;;;22.85;16.55;;;;;;;10.29;70.46;98861.81;4171961;28;20087;-70
2024/03/04 04:05:15;;;;;;;21.70;16.50;;;;;;;10.49;69.84;98867.59;4174215;28;20024;-70
2024/03/04 04:07:15;;;;;;;21.85;16.15;;;;;;;10.39;70.07;98865.13;4172060;28;20025;-70
2024/03/04 04:09:16;;;;;;;19.15;15.55;;;;;;;10.40;69.91;98872.13;4173019;28;20029;-70
2024/03/04 04:11:16;;;;;;;20.38;15.20;;;;;;;10.57;69.39;98870.25;4168755;28;20033;-71
2024/03/04 04:13:17;;;;;;;22.80;15.48;;;;;;;10.66;68.97;98878.22;4165179;28;20620;-70
2024/03/04 04:15:18;;;;;;;19.13;13.45;;;;;;;10.72;68.67;98874.88;4165352;28;20378;-70
2024/03/04 04:17:19;;;;;;;20.60;15.23;;;;;;;10.41;69.76;98881.00;4165184;28;20501;-70
2024/03/04 04:19:20;;;;;;;19.90;15.55;;;;;;;10.48;69.70;98883.81;4165260;28;20029;-70
2024/03/04 04:21:21;;;;;;;21.75;16.15;;;;;;;10.38;69.48;98882.19;4165217;28;20076;-70
2024/03/04 04:23:22;;;;;;;21.80;16.15;;;;;;;10.52;69.36;98880.63;4163788;28;20632;-70
2024/03/04 04:25:22;;;;;;;;;;;;;;;10.38;70.44;98882.19;4165412;28;20108;-69
2024/03/04 04:27:23;;;;;;;25.83;17.67;;;;;;;10.36;69.80;98884.16;4165764;28;19909;-70
2024/03/04 04:29:23;;;;;;;22.35;16.63;;;;;;;10.52;69.42;98888.66;4166618;28;20021;-70
2024/03/04 04:31:24;;;;;;;23.70;16.70;;;;;;;10.44;69.53;98902.00;4165567;28;20033;-70
2024/03/04 04:33:25;;;;;;;21.70;14.88;;;;;;;10.57;69.18;98901.50;4165165;28;20474;-70
2024/03/04 04:35:25;;;;;;;22.63;16.87;;;;;;;10.40;69.82;98901.53;4165224;28;20036;-69
2024/03/04 04:37:26;;;;;;;21.47;15.93;;;;;;;10.42;69.96;98907.53;4165052;28;20260;-69
2024/03/04 04:39:26;;;;;;;24.23;17.77;;;;;;;10.49;69.75;98899.66;4165487;28;20039;-69
2024/03/04 04:41:26;;;;;;;23.48;18.58;;;;;;;10.29;70.55;98905.38;4166080;28;20033;-70
2024/03/04 04:43:27;;;;;;;25.02;18.50;;;;;;;10.36;70.42;98918.88;4165286;28;20425;-70
2024/03/04 04:45:27;;;;;;;23.70;18.45;;;;;;;10.51;69.77;98918.19;4165514;28;20448;-69
2024/03/04 04:47:29;;;;;;;27.92;17.70;;;;;;;10.56;69.64;98927.38;4164666;28;20457;-69
2024/03/04 04:49:30;;;;;;;24.85;18.15;;;;;;;10.59;69.58;98928.84;4163347;28;20029;-71
2024/03/04 04:51:31;;;;;;;21.63;16.42;;;;;;;10.75;68.99;98930.63;4165636;28;20025;-68
2024/03/04 04:53:32;;;;;;;25.75;19.17;;;;;;;10.56;69.52;98929.22;4166239;28;20101;-70
2024/03/04 04:55:32;;;;;;;28.08;20.27;;;;;;;10.58;69.63;98935.22;4166683;28;20025;-70
2024/03/04 04:57:33;;;;;;;24.48;18.08;;;;;;;10.65;69.30;98938.88;4180146;28;20442;-70
2024/03/04 04:59:33;;;;;;;27.67;18.97;;;;;;;10.72;69.09;98936.34;4174828;28;20523;-70
2024/03/04 05:01:34;;;;;;;29.55;20.75;;;;;;;10.57;69.40;98938.91;4173166;28;20366;-69
2024/03/04 05:03:35;;;;;;;30.30;20.90;;;;;;;10.53;69.57;98942.91;4173463;28;20026;-69
2024/03/04 05:05:35;;;;;;;;;;;;;;;10.64;69.12;98944.38;4173721;28;20452;-69
2024/03/04 05:07:36;;;;;;;31.63;20.80;;;;;;;10.56;69.44;98945.25;4167291;28;20030;-69
2024/03/04 05:09:37;;;;;;;;;;;;;;;10.32;69.99;98954.94;4174904;28;20021;-69
2024/03/04 05:11:37;;;;;;;37.78;25.33;;;;;;;10.17;70.56;98964.66;4162617;28;19931;-69
2024/03/04 05:13:38;;;;;;;36.77;24.20;;;;;;;10.28;70.27;98962.47;4163097;28;20478;-70
2024/03/04 05:15:39;;;;;;;33.72;25.00;;;;;;;10.18;70.74;98969.00;4172346;28;20276;-69
2024/03/04 05:17:39;;;;;;;34.60;24.80;;;;;;;10.32;70.34;98978.97;4171349;28;20122;-69
2024/03/04 05:19:40;;;;;;;35.25;24.42;;;;;;;10.25;70.27;98973.47;4172762;28;20447;-70
2024/03/04 05:21:40;;;;;;;35.92;26.38;;;;;;;10.34;70.21;98976.16;4172339;28;20688;-70
2024/03/04 05:23:40;;;;;;;31.30;23.15;;;;;;;10.38;70.18;98967.69;4171797;28;20037;-70
2024/03/04 05:25:41;;;;;;;37.83;25.75;;;;;;;10.36;70.43;98976.81;4172388;28;20111;-69
2024/03/04 05:27:42;;;;;;;35.35;25.17;;;;;;;10.48;69.55;98967.47;4170623;28;20565;-69
2024/03/04 05:29:42;;;;;;;32.90;24.75;;;;;;;10.32;70.34;98984.34;4172340;28;20043;-69
2024/03/04 05:31:53;;;;;;;39.53;27.13;;;;;;;10.18;70.48;98982.34;4173139;28;20520;-69
2024/03/04 05:33:54;;;;;;;37.83;26.55;;;;;;;10.33;70.18;98990.53;4172073;28;20263;-69
2024/03/04 05:35:54;;;;;;;36.50;24.83;;;;;;;10.48;69.51;98988.03;4170600;28;20470;-69
2024/03/04 05:37:54;;;;;;;38.80;25.27;;;;;;;10.37;69.92;98992.72;4171743;28;20255;-71
2024/03/04 05:39:55;;;;;;;39.13;27.63;;;;;;;10.24;70.26;98995.03;4171964;28;20025;-71
2024/03/04 05:41:56;;;;;;;38.20;26.50;;;;;;;10.43;69.75;99000.03;4170702;28;20259;-71
2024/03/04 05:43:56;;;;;;;40.05;27.08;;;;;;;10.29;70.33;99001.53;4179550;28;20028;-71
2024/03/04 05:45:57;;;;;;;40.80;28.10;;;;;;;10.24;70.47;99013.72;4179704;28;20039;-70
2024/03/04 05:47:57;;;;;;;41.03;27.25;;;;;;;10.41;70.16;99015.41;4179912;28;20094;-71
2024/03/04 05:49:58;;;;;;;34.08;24.35;;;;;;;10.55;69.50;99011.22;4179063;28;20675;-71
2024/03/04 05:52:02;;;;;;;37.45;26.20;;;;;;;10.53;69.40;99017.72;4180170;28;20118;-71
2024/03/04 05:54:02;;;;;;;35.92;25.65;;;;;;;10.40;70.22;99019.06;4179832;28;20362;-71
2024/03/04 05:56:04;;;;;;;32.85;22.65;;;;;;;10.61;69.63;99020.38;4179756;28;20035;-70
2024/03/04 05:58:04;;;;;;;36.50;24.05;;;;;;;10.51;69.69;99035.75;4177970;28;20182;-71
2024/03/04 06:00:11;;;;;;;33.50;23.50;;;;;;;10.73;69.24;99032.41;4173307;28;20025;-68
2024/03/04 06:02:12;;;;;;;29.00;19.75;;;;;;;10.86;68.86;99034.53;4173295;28;20048;-69
2024/03/04 06:04:12;;;;;;;27.23;19.10;;;;;;;10.81;68.81;99044.06;4171629;28;20029;-69
2024/03/04 06:06:13;;;;;;;32.88;20.73;;;;;;;10.57;69.49;99041.28;4171059;28;20029;-69
2024/03/04 06:08:14;;;;;;;28.70;20.40;;;;;;;10.75;69.29;99034.88;4171198;28;20376;-69
2024/03/04 06:10:16;;;;;;;30.17;20.17;;;;;;;10.73;69.29;99044.91;4172895;28;20025;-69
2024/03/04 06:12:16;;;;;;;;;;;;;;;10.96;68.49;99045.03;4172108;28;20033;-69
2024/03/04 06:14:18;;;;;;;31.43;20.53;;;;;;;10.79;68.79;99049.59;4171533;28;20007;-68
2024/03/04 06:16:18;;;;;;;35.40;22.38;;;;;;;10.57;69.38;99056.50;4176597;28;20087;-69
2024/03/04 06:18:19;;;;;;;33.53;21.75;;;;;;;10.45;69.94;99054.16;4171113;28;20025;-70
2024/03/04 06:20:19;;;;;;;30.90;22.00;;;;;;;10.47;69.83;99055.84;4174579;28;20035;-70
2024/03/04 06:22:19;;;;;;;34.33;22.92;;;;;;;10.39;70.33;99054.81;4179593;28;20025;-70
2024/03/04 06:24:20;;;;;;;32.25;22.95;;;;;;;10.64;69.70;99052.13;4179570;28;20084;-69
2024/03/04 06:26:20;;;;;;;30.33;20.63;;;;;;;10.60;69.68;99051.63;4179722;28;20021;-70
2024/03/04 06:28:22;;;;;;;35.00;21.20;;;;;;;10.72;69.07;99049.44;4179188;28;20665;-69
2024/03/04 06:30:22;;;;;;;29.15;19.70;;;;;;;10.76;69.11;99060.63;4179366;28;20032;-70
2024/03/04 06:32:23;;;;;;;27.90;20.35;;;;;;;10.88;68.80;99056.59;4179478;28;20021;-70
2024/03/04 06:34:23;;;;;;;31.02;21.77;;;;;;;10.76;68.99;99055.28;4181687;28;20039;-70
2024/03/04 06:36:24;;;;;;;34.03;22.53;;;;;;;10.58;69.64;99058.16;4182856;28;20444;-69
2024/03/04 06:38:25;;;;;;;37.38;23.13;;;;;;;10.61;69.81;99057.81;4183434;28;20334;-69
2024/03/04 06:40:26;;;;;;;31.73;22.23;;;;;;;10.73;69.47;99059.13;4181924;28;20029;-69
2024/03/04 06:42:26;;;;;;;30.92;21.63;;;;;;;10.70;69.33;99059.47;4180281;28;20035;-69
2024/03/04 06:44:27;;;;;;;32.60;22.88;;;;;;;10.65;69.47;99067.16;4179657;28;20037;-69
2024/03/04 06:46:29;;;;;;;36.23;24.10;;;;;;;10.75;69.18;99069.66;4179275;28;20028;-69
2024/03/04 06:48:30;;;;;;;37.67;24.63;;;;;;;10.58;69.70;99071.53;4182125;28;20270;-69
2024/03/04 06:50:31;;;;;;;33.95;23.30;;;;;;;10.88;68.95;99069.09;4190023;28;20036;-70
2024/03/04 06:52:31;;;;;;;36.33;24.00;;;;;;;10.66;69.51;99070.66;4185566;28;20178;-70
2024/03/04 06:54:32;;;;;;;37.60;24.55;;;;;;;10.80;69.41;99072.66;4181938;28;20039;-69
2024/03/04 06:56:33;;;;;;;33.40;24.33;;;;;;;10.80;68.98;99077.16;4184953;28;20059;-71
2024/03/04 06:58:33;;;;;;;35.13;24.15;;;;;;;10.71;69.44;99081.69;4180459;28;20048;-71
2024/03/04 07:00:34;;;;;;;43.63;26.60;;;;;;;10.68;69.74;99090.84;4190548;28;20086;-69
2024/03/04 07:02:34;;;;;;;38.78;26.27;;;;;;;10.63;69.84;99081.72;4176692;28;20037;-72
2024/03/04 07:04:34;;;;;;;34.83;23.90;;;;;;;10.85;69.20;99090.84;4167334;28;20093;-71
2024/03/04 07:06:35;;;;;;;39.20;24.45;;;;;;;10.84;69.22;99099.88;4164137;28;20386;-71
2024/03/04 07:08:35;;;;;;;38.47;25.00;;;;;;;10.60;70.12;99096.22;4173155;28;20025;-71
2024/03/04 07:10:36;;;;;;;38.15;25.17;;;;;;;10.76;69.73;99104.25;4185957;28;20055;-69
2024/03/04 07:12:37;;;;;;;40.40;25.80;;;;;;;10.81;69.22;99108.22;4186277;28;20017;-69
2024/03/04 07:14:37;;;;;;;43.35;26.48;;;;;;;10.68;69.88;99122.94;4184610;28;20512;-71
2024/03/04 07:16:38;;;;;;;41.22;28.50;;;;;;;10.53;70.24;99119.28;4180400;28;20609;-71
2024/03/04 07:18:39;;;;;;;43.78;27.05;;;;;;;10.60;70.18;99117.59;4180166;28;20509;-71
2024/03/04 07:20:39;;;;;;;39.28;25.00;;;;;;;10.79;69.67;99112.91;4181990;28;20029;-71
2024/03/04 07:22:39;;;;;;;43.58;27.58;;;;;;;10.57;70.49;99117.97;4184719;28;20033;-69
2024/03/04 07:24:40;;;;;;;41.03;25.35;;;;;;;10.59;70.42;99123.94;4186432;28;20542;-70
2024/03/04 07:26:41;;;;;;;47.00;28.13;;;;;;;10.56;70.45;99124.31;4191400;28;20628;-70
2024/03/04 07:28:41;;;;;;;45.75;27.70;;;;;;;10.59;70.60;99126.63;4189195;28;20259;-69
2024/03/04 07:30:42;;;;;;;44.47;29.65;;;;;;;10.65;70.35;99127.78;4187876;28;20028;-69
2024/03/04 07:32:42;;;;;;;45.33;29.08;;;;;;;10.64;70.23;99131.47;4189848;28;20351;-69
2024/03/04 07:34:42;;;;;;;40.97;27.73;;;;;;;10.83;69.69;99132.97;4190517;28;20025;-70
2024/03/04 07:36:43;;;;;;;39.80;27.37;;;;;;;10.91;69.29;99136.44;4188811;28;20021;-69
2024/03/04 07:38:44;;;;;;;39.58;27.45;;;;;;;10.91;69.33;99132.94;4178811;28;20318;-68
2024/03/04 07:40:44;;;;;;;40.53;26.65;;;;;;;11.02;68.95;99137.09;4179600;28;20117;-68
2024/03/04 07:42:44;;;;;;;42.17;26.00;;;;;;;10.95;68.97;99141.47;4178813;28;20083;-69
2024/03/04 07:44:45;;;;;;;41.17;27.43;;;;;;;11.00;68.92;99139.97;4178953;28;20029;-68
2024/03/04 07:46:47;;;;;;;39.80;26.33;;;;;;;11.11;68.65;99148.63;4178896;28;20839;-68
2024/03/04 07:48:48;;;;;;;42.08;27.23;;;;;;;11.15;68.36;99137.44;4178923;28;20021;-69
2024/03/04 07:50:48;;;;;;;39.22;26.40;;;;;;;11.21;68.32;99143.94;4178619;28;20033;-70
2024/03/04 07:52:49;;;;;;;41.15;27.42;;;;;;;11.02;68.78;99142.44;4183235;28;20229;-71
2024/03/04 07:54:49;;;;;;;39.75;26.73;;;;;;;11.13;68.24;99150.13;4183422;28;20025;-70
2024/03/04 07:56:51;;;;;;;45.53;28.58;;;;;;;10.96;68.90;99157.34;4173078;28;20052;-70
2024/03/04 07:58:51;;;;;;;51.10;29.80;;;;;;;10.83;69.33;99160.53;4162351;28;20489;-69
2024/03/04 08:00:52;;;;;;;47.28;29.13;;;;;;;10.90;68.93;99163.38;4162205;28;20044;-70
2024/03/04 08:02:52;;;;;;;49.67;29.05;;;;;;;10.82;69.18;99155.34;4170552;28;20553;-70
2024/03/04 08:04:52;;;;;;;48.65;30.80;;;;;;;10.76;69.36;99157.72;4170647;28;20029;-69
2024/03/04 08:06:53;;;;;;;48.28;30.20;;;;;;;10.98;68.80;99166.03;4170758;28;20025;-70
2024/03/04 08:08:53;;;;;;;47.15;29.75;;;;;;;10.83;68.96;99168.53;4170237;28;20104;-70
2024/03/04 08:10:54;;;;;;;60.37;34.43;;;;;;;10.47;70.08;99168.06;4169635;28;20108;-70
2024/03/04 08:12:54;;;;;;;45.80;28.40;;;;;;;10.84;69.02;99169.41;4171109;28;20090;-69
2024/03/04 08:14:55;;;;;;;55.42;31.58;;;;;;;10.57;69.75;99174.06;4172841;28;20033;-70
2024/03/04 08:16:56;;;;;;;44.03;29.63;;;;;;;10.90;68.93;99174.91;4170300;28;20052;-70
2024/03/04 08:18:56;;;;;;;58.00;33.75;;;;;;;10.48;70.46;99180.41;4170347;28;20394;-70
2024/03/04 08:20:56;;;;;;;52.42;32.08;;;;;;;10.70;69.64;99179.75;4167418;28;20029;-70
2024/03/04 08:22:57;;;;;;;53.60;33.10;;;;;;;10.53;70.07;99188.75;4172253;28;20033;-70
2024/03/04 08:24:58;;;;;;;50.90;32.28;;;;;;;10.57;70.31;99190.94;4173073;28;20136;-69
2024/03/04 08:26:59;;;;;;;53.22;31.95;;;;;;;10.79;69.42;99193.09;4174786;28;20025;-69
2024/03/04 08:29:00;;;;;;;49.90;31.38;;;;;;;10.99;68.65;99197.13;4173224;28;20025;-70
2024/03/04 08:31:01;;;;;;;49.70;29.45;;;;;;;11.11;68.44;99192.25;4173256;28;20031;-70
2024/03/04 08:33:01;;;;;;;51.72;32.38;;;;;;;10.84;69.05;99196.97;4172783;28;20112;-70
2024/03/04 08:35:01;;;;;;;48.25;30.92;;;;;;;11.05;68.51;99195.63;4173415;28;20414;-70
2024/03/04 08:37:04;;;;;;;47.30;29.15;;;;;;;11.14;68.02;99193.78;4172971;28;20030;-69
2024/03/04 08:39:04;;;;;;;47.88;30.73;;;;;;;10.98;68.88;99205.31;4178389;28;20022;-69
2024/03/04 08:41:06;;;;;;;49.17;31.20;;;;;;;10.93;68.94;99197.81;4187873;28;20041;-70
2024/03/04 08:43:07;;;;;;;57.95;32.00;;;;;;;10.91;69.07;99197.13;4187038;28;20045;-70
2024/03/04 08:45:08;;;;;;;49.70;30.52;;;;;;;10.93;68.98;99195.94;4187579;28;20041;-70
2024/03/04 08:47:09;;;;;;;52.70;32.05;;;;;;;10.86;69.20;99205.66;4180797;28;20021;-71
2024/03/04 08:49:10;;;;;;;53.30;32.90;;;;;;;10.76;69.46;99210.31;4187660;28;20021;-70
2024/03/04 08:51:10;;;;;;;52.20;32.20;;;;;;;11.02;68.67;99209.31;4197497;28;20029;-70
2024/03/04 08:53:11;;;;;;;52.77;32.17;;;;;;;10.85;68.93;99219.19;4197296;28;20121;-69
2024/03/04 08:55:11;;;;;;;;;;;;;;;10.59;69.97;99214.81;4175297;28;20839;-70
2024/03/04 08:57:12;;;;;;;48.90;30.57;;;;;;;11.00;68.62;99212.16;4181246;28;19920;-70
2024/03/04 08:59:13;;;;;;;49.83;30.45;;;;;;;10.86;68.90;99211.00;4172858;28;20405;-69
2024/03/04 09:01:13;;;;;;;50.03;31.58;;;;;;;11.06;68.51;99216.84;4172556;28;20057;-70
2024/03/04 09:03:14;;;;;;;49.63;30.58;;;;;;;10.99;68.78;99221.19;4172501;28;20029;-70
2024/03/04 09:05:14;;;;;;;50.03;31.98;;;;;;;11.23;68.01;99220.34;4172851;28;20381;-70
2024/03/04 09:07:16;;;;;;;46.78;29.02;;;;;;;11.38;67.35;99225.84;4172752;28;20032;-70
2024/03/04 09:09:16;;;;;;;;;;;;;;;11.26;67.63;99237.06;4173523;28;20036;-70
2024/03/04 09:11:17;;;;;;;44.27;27.80;;;;;;;11.31;67.51;99226.66;4172582;28;19909;-70
2024/03/04 09:13:17;;;;;;;42.50;27.17;;;;;;;11.44;67.19;99228.81;4174817;28;20076;-70
2024/03/04 09:15:20;;;;;;;44.65;27.05;;;;;;;11.28;67.72;99229.72;4176921;28;20029;-70
2024/03/04 09:17:21;;;;;;;43.75;26.73;;;;;;;11.34;67.63;99239.72;4169562;28;20021;-70
2024/03/04 09:19:21;;;;;;;42.53;27.90;;;;;;;11.28;67.65;99233.19;4169353;28;20028;-70